• Join FlightAware (Why Join?)
  • Login
  • US Flag 
03:36AM EDT


 

Airport Tracker/Info


-or-


 

Live Flight TrackerFlight Track Log ✈ CHB6237 ✈ 04-Aug-2014 ✈ ZUCK / CKG - ZBTJ / TSN

Flight Track Log - Related Links

Times and Time Zones

All times are in EDT time to prevent confusion due to time zone crossing. See the CHB6237 flight status page for this flight to view local times or setup timezone preferences in your user account.

Time Position Orientation Groundspeed Altitude Reporting Facility
EDT Latitude Longitude Course Direction KTS MPH feet Rate Location/Type
03:17AM 30.2558 107.1682 40° Northeast  Level Estimated
03:18AM 30.3323 107.2440 41° Northeast  Level Estimated
03:19AM 30.4087 107.3198 41° Northeast  Level Estimated
03:20AM 30.4851 107.3959 41° Northeast  Level Estimated
03:21AM 30.5614 107.4720 41° Northeast  Level Estimated
03:22AM 30.6377 107.5482 41° Northeast  Level Estimated
03:23AM 30.7140 107.6246 41° Northeast  Level Estimated
03:24AM 30.7902 107.7011 41° Northeast  Level Estimated
03:25AM 30.8664 107.7777 41° Northeast  Level Estimated
03:26AM 30.9425 107.8545 41° Northeast  Level Estimated
03:27AM 31.0185 107.9313 41° Northeast  Level Estimated
03:28AM 31.0945 108.0083 41° Northeast  Level Estimated
03:29AM 31.1705 108.0854 41° Northeast  Level Estimated
03:30AM 31.2465 108.1627 41° Northeast  Level Estimated
03:31AM 31.3223 108.2400 41° Northeast  Level Estimated
03:32AM 31.3982 108.3175 41° Northeast  Level Estimated
03:33AM 31.4739 108.3951 41° Northeast  Level Estimated
03:34AM 31.5497 108.4728 41° Northeast  Level Estimated
03:35AM 31.6254 108.5507 41° Northeast  Level Estimated
03:36AM 31.7010 108.6287 41° Northeast  Level Estimated
03:37AM 31.7766 108.7068 41° Northeast  Level Estimated
03:38AM 31.8522 108.7850 41° Northeast  Level Estimated
03:39AM 31.9277 108.8634 41° Northeast  Level Estimated
03:40AM 32.0032 108.9419 41° Northeast  Level Estimated
03:41AM 32.0786 109.0205 41° Northeast  Level Estimated
03:42AM 32.1539 109.0993 41° Northeast  Level Estimated
03:43AM 32.2292 109.1781 42° Northeast  Level Estimated
03:44AM 32.3045 109.2571 42° Northeast  Level Estimated
03:45AM 32.3797 109.3363 42° Northeast  Level Estimated
03:46AM 32.4549 109.4156 42° Northeast  Level Estimated
03:47AM 32.5300 109.4950 42° Northeast  Level Estimated
03:48AM 32.6050 109.5745 42° Northeast  Level Estimated
03:49AM 32.6800 109.6542 42° Northeast  Level Estimated
03:50AM 32.7550 109.7340 42° Northeast  Level Estimated
03:51AM 32.8299 109.8140 42° Northeast  Level Estimated
03:52AM 32.9048 109.8940 42° Northeast  Level Estimated
03:53AM 32.9796 109.9743 42° Northeast  Level Estimated
03:54AM 33.0544 110.0546 42° Northeast  Level Estimated
03:55AM 33.1291 110.1351 42° Northeast  Level Estimated
03:56AM 33.2037 110.2157 42° Northeast  Level Estimated
03:57AM 33.2783 110.2965 42° Northeast  Level Estimated
03:58AM 33.3529 110.3774 42° Northeast  Level Estimated
03:59AM 33.4274 110.4584 42° Northeast  Level Estimated
04:00AM 33.5018 110.5396 42° Northeast  Level Estimated
04:01AM 33.5762 110.6209 42° Northeast  Level Estimated
04:02AM 33.6505 110.7024 42° Northeast  Level Estimated
04:03AM 33.7248 110.7840 42° Northeast  Level Estimated
04:04AM 33.7990 110.8657 42° Northeast  Level Estimated
04:05AM 33.8732 110.9476 42° Northeast  Level Estimated
04:06AM 33.9473 111.0296 43° Northeast  Level Estimated
04:07AM 34.0214 111.1118 43° Northeast  Level Estimated
04:08AM 34.0954 111.1941 43° Northeast  Level Estimated
04:09AM 34.1694 111.2766 43° Northeast  Level Estimated
04:10AM 34.2433 111.3592 43° Northeast  Level Estimated
04:11AM 34.3172 111.4419 43° Northeast  Level Estimated
04:12AM 34.3909 111.5248 43° Northeast  Level Estimated
04:13AM 34.4647 111.6078 43° Northeast  Level Estimated
04:14AM 34.5383 111.6910 43° Northeast  Level Estimated
04:15AM 34.6120 111.7744 43° Northeast  Level Estimated
04:16AM 34.6855 111.8578 43° Northeast  Level Estimated
04:17AM 34.7590 111.9415 43° Northeast  Level Estimated
04:18AM 34.8325 112.0252 43° Northeast  Level Estimated
04:19AM 34.9059 112.1092 43° Northeast  Level Estimated
04:20AM 34.9792 112.1932 43° Northeast  Level Estimated
04:21AM 35.0525 112.2775 43° Northeast  Level Estimated
04:22AM 35.1257 112.3618 43° Northeast  Level Estimated
04:23AM 35.1989 112.4464 43° Northeast  Level Estimated
04:24AM 35.2720 112.5311 43° Northeast  Level Estimated
04:25AM 35.3451 112.6159 43° Northeast  Level Estimated
04:26AM 35.4180 112.7009 43° Northeast  Level Estimated
04:27AM 35.4910 112.7860 44° Northeast  Level Estimated
04:28AM 35.5638 112.8713 44° Northeast  Level Estimated
04:29AM 35.6366 112.9568 44° Northeast  Level Estimated
04:30AM 35.7094 113.0424 44° Northeast  Level Estimated
04:31AM 35.7821 113.1281 44° Northeast  Level Estimated
04:32AM 35.8547 113.2141 44° Northeast  Level Estimated
04:33AM 35.9272 113.3001 44° Northeast  Level Estimated
04:34AM 35.9997 113.3864 44° Northeast  Level Estimated
04:35AM 36.0722 113.4728 44° Northeast  Level Estimated
04:36AM 36.1446 113.5593 44° Northeast  Level Estimated
04:37AM 36.2169 113.6460 44° Northeast  Level Estimated
04:38AM 36.2891 113.7329 44° Northeast  Level Estimated
04:39AM 36.3613 113.8199 44° Northeast  Level Estimated
04:40AM 36.4334 113.9072 44° Northeast  Level Estimated
04:41AM 36.5055 113.9945 44° Northeast  Level Estimated
04:42AM 36.5775 114.0820 44° Northeast  Level Estimated
04:43AM 36.6494 114.1697 44° Northeast  Level Estimated
04:44AM 36.7213 114.2576 44° Northeast  Level Estimated
04:45AM 36.7931 114.3456 44° Northeast  Level Estimated
04:46AM 36.8648 114.4338 45° Northeast  Level Estimated
04:47AM 36.9365 114.5221 45° Northeast  Level Estimated
04:48AM 37.0081 114.6106 45° Northeast  Level Estimated
04:49AM 37.0797 114.6993 45° Northeast  Level Estimated
04:50AM 37.1511 114.7881 45° Northeast  Level Estimated
04:51AM 37.2225 114.8772 45° Northeast  Level Estimated
04:52AM 37.2939 114.9663 45° Northeast  Level Estimated
04:53AM 37.3652 115.0557 45° Northeast  Level Estimated
04:54AM 37.4364 115.1452 45° Northeast  Level Estimated
04:55AM 37.5075 115.2349 45° Northeast  Level Estimated
04:56AM 37.5786 115.3248 45° Northeast  Level Estimated
04:57AM 37.6496 115.4148 45° Northeast  Level Estimated
04:58AM 37.7205 115.5050 45° Northeast  Level Estimated
04:59AM 37.7914 115.5954 45° Northeast  Level Estimated
05:00AM 37.8622 115.6859 45° Northeast  Level Estimated
05:01AM 37.9329 115.7766 45° Northeast  Level Estimated
05:02AM 38.0036 115.8676 45° Northeast  Level Estimated
05:03AM 38.0742 115.9586 45° Northeast  Level Estimated
05:04AM 38.1447 116.0499 45° Northeast  Level Estimated
05:05AM 38.2151 116.1413 46° Northeast  Level Estimated
05:06AM 38.2855 116.2329 46° Northeast  Level Estimated
05:07AM 38.3558 116.3247 46° Northeast  Level Estimated
05:08AM 38.4261 116.4167 46° Northeast  Level Estimated
05:09AM 38.4962 116.5088 46° Northeast  Level Estimated
05:10AM 38.5663 116.6011 46° Northeast  Level Estimated
05:11AM 38.6363 116.6936 46° Northeast  Level Estimated
05:12AM 38.7063 116.7863 46° Northeast  Level Estimated
05:13AM 38.7761 116.8792 46° Northeast  Level Estimated
05:14AM 38.8459 116.9722 46° Northeast  Level Estimated
05:15AM 38.9157 117.0655 46° Northeast  Level Estimated
05:16AM 38.9853 117.1589 46° Northeast  Level Estimated
05:17AM 39.0549 117.2524 46° Northeast  Level Estimated
05:18AM 39.1244 117.3462 46° Northeast  Level Estimated
05:19AM 39.1244 117.3462 North  Level Estimated
05:20AM 39.1244 117.3462 North  Level Estimated
05:21AM 39.1244 117.3462 North  Level Estimated
05:22AM 39.1244 117.3462 North  Level Estimated
05:23AM 39.1244 117.3462 North  Level Estimated
05:24AM 39.1244 117.3462 North  Level Estimated
05:25AM 39.1244 117.3462 North  Level Estimated
05:26AM 39.1244 117.3462 North  Level Estimated
05:27AM 39.1244 117.3462 North  Level Estimated
05:28AM 39.1244 117.3462 North  Level Estimated
05:29AM 39.1244 117.3462 North  Level Estimated
05:30AM 39.1244 117.3462 North  Level Estimated
05:31AM 39.1244 117.3462 North  Level Estimated
05:32AM 39.1244 117.3462 North  Level Estimated
05:33AM 39.1244 117.3462 North  Level Estimated
05:34AM 39.1244 117.3462 North  Level Estimated